createdAt,value
2024-03-27T00:07:53.121Z,97778.00
2024-03-27T00:17:52.254Z,97772.00
2024-03-27T00:27:52.153Z,97782.00
2024-03-27T00:37:51.278Z,97782.00
2024-03-27T00:47:51.213Z,97782.00
2024-03-27T00:57:50.220Z,97782.00
2024-03-27T01:07:49.231Z,97770.00
2024-03-27T01:17:48.249Z,97764.00
2024-03-27T01:27:47.281Z,97751.00
2024-03-27T01:37:46.263Z,97743.00
2024-03-27T01:47:45.313Z,97735.00
2024-03-27T01:57:44.297Z,97731.00
2024-03-27T02:07:43.294Z,97719.00
2024-03-27T02:17:42.344Z,97717.00
2024-03-27T02:27:41.303Z,97715.00
2024-03-27T02:37:40.345Z,97701.00
2024-03-27T02:47:39.374Z,97686.00
2024-03-27T02:57:38.367Z,97676.00
2024-03-27T03:07:37.363Z,97672.00
2024-03-27T03:17:36.424Z,97672.00
2024-03-27T03:27:35.448Z,97668.00
2024-03-27T03:37:35.381Z,97664.00
2024-03-27T03:47:34.403Z,97654.00
2024-03-27T03:57:33.516Z,97644.00
2024-03-27T04:07:33.491Z,97641.00
2024-03-27T04:17:33.464Z,97629.00
2024-03-27T04:27:32.579Z,97615.00
2024-03-27T04:37:32.532Z,97615.00
2024-03-27T04:47:32.542Z,97619.00
2024-03-27T04:57:32.629Z,97629.00
2024-03-27T05:07:32.570Z,97644.00
2024-03-27T05:17:32.634Z,97666.00
2024-03-27T05:27:32.614Z,97658.00
2024-03-27T05:37:32.621Z,97650.00
2024-03-27T05:47:32.630Z,97654.00
2024-03-27T05:57:31.599Z,97678.00
2024-03-27T06:07:30.680Z,97694.00
2024-03-27T06:17:30.626Z,97719.00
2024-03-27T06:27:29.634Z,97727.00
2024-03-27T06:37:28.670Z,97737.00
2024-03-27T06:47:27.693Z,97745.00
2024-03-27T06:57:27.692Z,97753.00
2024-03-27T07:07:27.695Z,97762.00
2024-03-27T07:17:27.766Z,97760.00
2024-03-27T07:27:27.686Z,97766.00
2024-03-27T07:37:26.719Z,97766.00
2024-03-27T07:47:25.746Z,97766.00
2024-03-27T07:57:24.749Z,97770.00
2024-03-27T08:07:23.799Z,97776.00
2024-03-27T08:17:22.828Z,97778.00
2024-03-27T08:27:21.780Z,97780.00
2024-03-27T08:37:21.817Z,97786.00
2024-03-27T08:47:20.840Z,97786.00
2024-03-27T08:57:19.877Z,97778.00
2024-03-27T09:07:19.844Z,97786.00
2024-03-27T09:17:18.878Z,97802.00
2024-03-27T09:27:17.875Z,97806.00
2024-03-27T09:37:16.865Z,97814.00
2024-03-27T09:47:15.912Z,97808.00
2024-03-27T09:57:17.922Z,97814.00
2024-03-27T10:07:15.946Z,97808.00
2024-03-27T10:17:14.976Z,97812.00
2024-03-27T10:27:16.041Z,97827.00
2024-03-27T10:37:14.960Z,97843.00
2024-03-27T10:47:14.008Z,97857.00
2024-03-27T10:57:15.052Z,97864.00
2024-03-27T11:07:13.998Z,97874.00
2024-03-27T11:17:13.036Z,97882.00
2024-03-27T11:27:12.051Z,97886.00
2024-03-27T11:37:11.037Z,97894.00
2024-03-27T11:47:10.101Z,97888.00
2024-03-27T11:57:09.050Z,97894.00
2024-03-27T12:07:08.134Z,97908.00
2024-03-27T12:17:07.141Z,97925.00
2024-03-27T12:27:06.137Z,97929.00
2024-03-27T12:37:05.122Z,97925.00
2024-03-27T12:47:04.180Z,97937.00
2024-03-27T12:57:03.186Z,97943.00
2024-03-27T13:07:02.176Z,97949.00
2024-03-27T13:17:01.213Z,97945.00
2024-03-27T13:27:00.230Z,97959.00
2024-03-27T13:36:59.206Z,97981.00
2024-03-27T13:46:58.250Z,97992.00
2024-03-27T13:56:57.208Z,98004.00
2024-03-27T14:06:56.284Z,98014.00
2024-03-27T14:16:56.264Z,98020.00
2024-03-27T14:26:55.262Z,98012.00
2024-03-27T14:36:55.299Z,97998.00
2024-03-27T14:46:54.319Z,97984.00
2024-03-27T14:56:53.343Z,97979.00
2024-03-27T15:06:52.398Z,97981.00
2024-03-27T15:16:52.369Z,97994.00
2024-03-27T15:26:51.357Z,98010.00
2024-03-27T15:36:50.377Z,98016.00
2024-03-27T15:46:49.412Z,98022.00
2024-03-27T15:56:48.388Z,98024.00
2024-03-27T16:06:47.415Z,98032.00
2024-03-27T16:16:46.433Z,98022.00
2024-03-27T16:26:45.450Z,98022.00
2024-03-27T16:36:44.471Z,98016.00
2024-03-27T16:46:43.489Z,98016.00
2024-03-27T16:56:42.470Z,98010.00
2024-03-27T17:06:41.512Z,98012.00
2024-03-27T17:16:40.503Z,98006.00
2024-03-27T17:26:39.532Z,98006.00
2024-03-27T17:36:38.537Z,98012.00
2024-03-27T17:46:37.579Z,98010.00
2024-03-27T17:56:36.546Z,98010.00
2024-03-27T18:06:35.589Z,98012.00
2024-03-27T18:16:34.589Z,98014.00
2024-03-27T18:26:33.610Z,98012.00
2024-03-27T18:36:32.641Z,98016.00
2024-03-27T18:46:31.707Z,98014.00
2024-03-27T18:56:31.646Z,98014.00
2024-03-27T19:06:30.663Z,98018.00
2024-03-27T19:16:31.502Z,98016.00
2024-03-27T19:26:30.697Z,98010.00
2024-03-27T19:36:29.704Z,98004.00
2024-03-27T19:46:28.727Z,97998.00
2024-03-27T19:56:27.723Z,97988.00
2024-03-27T20:06:26.709Z,97984.00
2024-03-27T20:16:25.768Z,97982.00
2024-03-27T20:26:24.751Z,97973.00
2024-03-27T20:36:23.776Z,97955.00
2024-03-27T20:46:22.799Z,97959.00
2024-03-27T20:56:21.785Z,97973.00
2024-03-27T21:06:20.829Z,97975.00
2024-03-27T21:16:19.835Z,97960.00
2024-03-27T21:26:18.820Z,97953.00
2024-03-27T21:36:17.873Z,97939.00
2024-03-27T21:46:16.854Z,97935.00
2024-03-27T21:56:15.866Z,97927.00
2024-03-27T22:06:14.899Z,97917.00
2024-03-27T22:16:13.918Z,97909.00
2024-03-27T22:26:12.952Z,97908.00
2024-03-27T22:36:11.907Z,97902.00
2024-03-27T22:46:10.975Z,97894.00
2024-03-27T22:56:09.948Z,97894.00
2024-03-27T23:06:08.962Z,97888.00
2024-03-27T23:16:07.983Z,97886.00
2024-03-27T23:26:06.981Z,97876.00
2024-03-27T23:36:05.981Z,97874.00
2024-03-27T23:46:05.016Z,97855.00
2024-03-27T23:56:04.037Z,97849.00
